sensor_id;sensor_type;location;lat;lon;timestamp;temperature;humidity
14182;DHT22;7171;50.936;6.764;2023-03-01T00:01:12;2.90;99.40
14182;DHT22;7171;50.936;6.764;2023-03-01T00:03:41;2.80;99.40
14182;DHT22;7171;50.936;6.764;2023-03-01T00:06:08;2.80;99.40
14182;DHT22;7171;50.936;6.764;2023-03-01T00:08:35;2.80;99.50
14182;DHT22;7171;50.936;6.764;2023-03-01T00:11:04;2.80;99.40
14182;DHT22;7171;50.936;6.764;2023-03-01T00:13:31;2.80;99.50
14182;DHT22;7171;50.936;6.764;2023-03-01T00:15:58;2.80;99.30
14182;DHT22;7171;50.936;6.764;2023-03-01T00:18:26;2.80;99.30
14182;DHT22;7171;50.936;6.764;2023-03-01T00:20:53;2.70;99.20
14182;DHT22;7171;50.936;6.764;2023-03-01T00:23:21;2.70;99.20
14182;DHT22;7171;50.936;6.764;2023-03-01T00:25:48;2.70;99.30
14182;DHT22;7171;50.936;6.764;2023-03-01T00:28:16;2.70;99.20
14182;DHT22;7171;50.936;6.764;2023-03-01T00:30:43;2.60;99.20
14182;DHT22;7171;50.936;6.764;2023-03-01T00:33:09;2.60;99.20
14182;DHT22;7171;50.936;6.764;2023-03-01T00:35:37;2.50;99.20
14182;DHT22;7171;50.936;6.764;2023-03-01T00:38:05;2.50;99.20
14182;DHT22;7171;50.936;6.764;2023-03-01T00:40:34;2.50;99.30
14182;DHT22;7171;50.936;6.764;2023-03-01T00:43:01;2.50;99.50
14182;DHT22;7171;50.936;6.764;2023-03-01T00:45:28;2.50;99.30
14182;DHT22;7171;50.936;6.764;2023-03-01T00:47:56;2.50;99.30
14182;DHT22;7171;50.936;6.764;2023-03-01T00:50:23;2.40;99.30
14182;DHT22;7171;50.936;6.764;2023-03-01T00:52:54;2.40;99.30
14182;DHT22;7171;50.936;6.764;2023-03-01T00:55:21;2.40;99.30
14182;DHT22;7171;50.936;6.764;2023-03-01T00:57:48;2.40;99.30
14182;DHT22;7171;50.936;6.764;2023-03-01T01:00:15;2.40;99.20
14182;DHT22;7171;50.936;6.764;2023-03-01T01:02:42;2.40;99.40
14182;DHT22;7171;50.936;6.764;2023-03-01T01:05:09;2.40;99.20
14182;DHT22;7171;50.936;6.764;2023-03-01T01:07:35;2.40;99.30
14182;DHT22;7171;50.936;6.764;2023-03-01T01:10:04;2.30;99.40
14182;DHT22;7171;50.936;6.764;2023-03-01T01:12:31;2.30;99.40
14182;DHT22;7171;50.936;6.764;2023-03-01T01:14:58;2.30;99.40
14182;DHT22;7171;50.936;6.764;2023-03-01T01:17:25;2.30;99.40
14182;DHT22;7171;50.936;6.764;2023-03-01T01:19:52;2.30;99.40
14182;DHT22;7171;50.936;6.764;2023-03-01T01:22:18;2.30;99.30
14182;DHT22;7171;50.936;6.764;2023-03-01T01:24:45;2.30;99.30
14182;DHT22;7171;50.936;6.764;2023-03-01T01:27:13;2.20;99.30
14182;DHT22;7171;50.936;6.764;2023-03-01T01:29:39;2.20;99.40
14182;DHT22;7171;50.936;6.764;2023-03-01T01:32:07;2.20;99.60
14182;DHT22;7171;50.936;6.764;2023-03-01T01:34:34;2.20;99.40
14182;DHT22;7171;50.936;6.764;2023-03-01T01:37:00;2.20;99.40
14182;DHT22;7171;50.936;6.764;2023-03-01T01:39:28;2.20;99.40
14182;DHT22;7171;50.936;6.764;2023-03-01T01:41:54;2.20;99.40
14182;DHT22;7171;50.936;6.764;2023-03-01T01:44:24;2.20;99.40
14182;DHT22;7171;50.936;6.764;2023-03-01T01:46:53;2.20;99.40
14182;DHT22;7171;50.936;6.764;2023-03-01T01:49:29;2.20;99.50
14182;DHT22;7171;50.936;6.764;2023-03-01T01:52:02;2.20;99.50
14182;DHT22;7171;50.936;6.764;2023-03-01T01:54:38;2.20;99.50
14182;DHT22;7171;50.936;6.764;2023-03-01T01:57:09;2.20;99.50
14182;DHT22;7171;50.936;6.764;2023-03-01T01:59:41;2.20;99.50
14182;DHT22;7171;50.936;6.764;2023-03-01T02:02:09;2.20;99.60
14182;DHT22;7171;50.936;6.764;2023-03-01T02:04:36;2.20;99.60
14182;DHT22;7171;50.936;6.764;2023-03-01T02:07:07;2.20;99.70
14182;DHT22;7171;50.936;6.764;2023-03-01T02:09:36;2.20;99.60
14182;DHT22;7171;50.936;6.764;2023-03-01T02:12:04;2.20;99.70
14182;DHT22;7171;50.936;6.764;2023-03-01T02:14:32;2.30;99.80
14182;DHT22;7171;50.936;6.764;2023-03-01T02:17:00;2.30;99.90
14182;DHT22;7171;50.936;6.764;2023-03-01T02:19:39;2.30;99.80
14182;DHT22;7171;50.936;6.764;2023-03-01T02:22:17;2.30;99.80
14182;DHT22;7171;50.936;6.764;2023-03-01T02:24:53;2.30;99.70
14182;DHT22;7171;50.936;6.764;2023-03-01T02:27:31;2.30;99.70
14182;DHT22;7171;50.936;6.764;2023-03-01T02:30:03;2.30;99.70
14182;DHT22;7171;50.936;6.764;2023-03-01T02:32:31;2.30;99.70
14182;DHT22;7171;50.936;6.764;2023-03-01T02:34:57;2.30;99.70
14182;DHT22;7171;50.936;6.764;2023-03-01T02:37:25;2.30;99.70
14182;DHT22;7171;50.936;6.764;2023-03-01T02:39:59;2.30;99.60
14182;DHT22;7171;50.936;6.764;2023-03-01T02:42:30;2.30;99.50
14182;DHT22;7171;50.936;6.764;2023-03-01T02:44:57;2.20;99.50
14182;DHT22;7171;50.936;6.764;2023-03-01T02:47:26;2.20;99.50
14182;DHT22;7171;50.936;6.764;2023-03-01T02:49:52;2.20;99.50
14182;DHT22;7171;50.936;6.764;2023-03-01T02:52:33;2.20;99.40
14182;DHT22;7171;50.936;6.764;2023-03-01T02:55:03;2.10;99.40
14182;DHT22;7171;50.936;6.764;2023-03-01T02:57:31;2.10;99.40
14182;DHT22;7171;50.936;6.764;2023-03-01T03:00:03;2.00;99.90
14182;DHT22;7171;50.936;6.764;2023-03-01T03:02:34;2.00;99.90
14182;DHT22;7171;50.936;6.764;2023-03-01T03:05:07;2.00;99.90
14182;DHT22;7171;50.936;6.764;2023-03-01T03:07:36;1.90;99.90
14182;DHT22;7171;50.936;6.764;2023-03-01T03:10:04;1.90;99.90
14182;DHT22;7171;50.936;6.764;2023-03-01T03:12:32;1.90;99.90
14182;DHT22;7171;50.936;6.764;2023-03-01T03:14:59;1.90;99.20
14182;DHT22;7171;50.936;6.764;2023-03-01T03:17:25;1.90;99.60
14182;DHT22;7171;50.936;6.764;2023-03-01T03:19:53;1.90;99.60
14182;DHT22;7171;50.936;6.764;2023-03-01T03:22:20;1.90;99.70
14182;DHT22;7171;50.936;6.764;2023-03-01T03:24:47;1.90;99.70
14182;DHT22;7171;50.936;6.764;2023-03-01T03:27:13;2.00;99.70
14182;DHT22;7171;50.936;6.764;2023-03-01T03:29:40;2.00;99.60
14182;DHT22;7171;50.936;6.764;2023-03-01T03:32:07;2.00;99.60
14182;DHT22;7171;50.936;6.764;2023-03-01T03:34:33;2.00;99.60
14182;DHT22;7171;50.936;6.764;2023-03-01T03:37:01;1.90;99.50
14182;DHT22;7171;50.936;6.764;2023-03-01T03:39:28;1.90;99.50
14182;DHT22;7171;50.936;6.764;2023-03-01T03:42:00;1.90;99.50
14182;DHT22;7171;50.936;6.764;2023-03-01T03:44:27;1.90;99.50
14182;DHT22;7171;50.936;6.764;2023-03-01T03:46:53;1.80;99.40
14182;DHT22;7171;50.936;6.764;2023-03-01T03:49:20;1.80;99.30
14182;DHT22;7171;50.936;6.764;2023-03-01T03:54:15;1.70;99.90
14182;DHT22;7171;50.936;6.764;2023-03-01T03:56:42;1.70;99.90
14182;DHT22;7171;50.936;6.764;2023-03-01T03:59:09;1.60;99.30
14182;DHT22;7171;50.936;6.764;2023-03-01T04:01:36;1.60;99.60
14182;DHT22;7171;50.936;6.764;2023-03-01T04:04:03;1.60;99.40
14182;DHT22;7171;50.936;6.764;2023-03-01T04:06:30;1.60;99.50
14182;DHT22;7171;50.936;6.764;2023-03-01T04:08:57;1.60;99.50
14182;DHT22;7171;50.936;6.764;2023-03-01T04:11:27;1.60;99.60
14182;DHT22;7171;50.936;6.764;2023-03-01T04:13:55;1.50;99.60
14182;DHT22;7171;50.936;6.764;2023-03-01T04:16:23;1.50;99.60
14182;DHT22;7171;50.936;6.764;2023-03-01T04:18:49;1.30;99.90
14182;DHT22;7171;50.936;6.764;2023-03-01T04:21:17;1.50;99.90
14182;DHT22;7171;50.936;6.764;2023-03-01T04:23:45;1.30;99.90
14182;DHT22;7171;50.936;6.764;2023-03-01T04:26:12;1.40;99.90
14182;DHT22;7171;50.936;6.764;2023-03-01T04:28:42;1.30;99.90
14182;DHT22;7171;50.936;6.764;2023-03-01T05:40:26;1.20;99.90
14182;DHT22;7171;50.936;6.764;2023-03-01T05:42:55;1.10;99.90
14182;DHT22;7171;50.936;6.764;2023-03-01T05:45:23;1.10;99.90
14182;DHT22;7171;50.936;6.764;2023-03-01T05:47:50;1.00;99.90
14182;DHT22;7171;50.936;6.764;2023-03-01T05:50:19;1.00;99.90
14182;DHT22;7171;50.936;6.764;2023-03-01T05:52:47;1.00;99.90
14182;DHT22;7171;50.936;6.764;2023-03-01T05:55:17;1.00;99.90
14182;DHT22;7171;50.936;6.764;2023-03-01T05:57:44;1.20;99.90
14182;DHT22;7171;50.936;6.764;2023-03-01T06:00:12;1.00;99.90
14182;DHT22;7171;50.936;6.764;2023-03-01T06:02:40;0.90;99.90
14182;DHT22;7171;50.936;6.764;2023-03-01T06:05:08;0.90;99.90
14182;DHT22;7171;50.936;6.764;2023-03-01T06:07:35;1.00;99.90
14182;DHT22;7171;50.936;6.764;2023-03-01T06:10:02;0.90;99.90
14182;DHT22;7171;50.936;6.764;2023-03-01T06:12:32;1.00;99.90
14182;DHT22;7171;50.936;6.764;2023-03-01T06:14:59;0.90;99.90
14182;DHT22;7171;50.936;6.764;2023-03-01T06:17:29;1.00;99.90
14182;DHT22;7171;50.936;6.764;2023-03-01T06:19:56;1.00;99.90
14182;DHT22;7171;50.936;6.764;2023-03-01T06:22:23;1.00;99.90
14182;DHT22;7171;50.936;6.764;2023-03-01T06:24:50;1.00;99.90
14182;DHT22;7171;50.936;6.764;2023-03-01T06:27:16;1.00;99.90
14182;DHT22;7171;50.936;6.764;2023-03-01T06:29:44;1.10;99.90
14182;DHT22;7171;50.936;6.764;2023-03-01T06:32:11;1.10;99.90
14182;DHT22;7171;50.936;6.764;2023-03-01T06:34:38;1.10;99.90
14182;DHT22;7171;50.936;6.764;2023-03-01T06:37:05;1.10;99.90
14182;DHT22;7171;50.936;6.764;2023-03-01T06:39:32;1.20;99.90
14182;DHT22;7171;50.936;6.764;2023-03-01T06:41:59;1.10;99.90
14182;DHT22;7171;50.936;6.764;2023-03-01T06:44:26;1.00;99.90
14182;DHT22;7171;50.936;6.764;2023-03-01T06:46:55;1.10;99.90
14182;DHT22;7171;50.936;6.764;2023-03-01T06:49:21;1.10;99.90
14182;DHT22;7171;50.936;6.764;2023-03-01T06:51:48;1.10;99.90
14182;DHT22;7171;50.936;6.764;2023-03-01T06:54:15;1.00;99.90
14182;DHT22;7171;50.936;6.764;2023-03-01T06:56:43;1.00;99.90
14182;DHT22;7171;50.936;6.764;2023-03-01T06:59:09;1.10;99.90
14182;DHT22;7171;50.936;6.764;2023-03-01T07:01:36;1.10;99.90
14182;DHT22;7171;50.936;6.764;2023-03-01T07:04:05;1.00;99.90
14182;DHT22;7171;50.936;6.764;2023-03-01T07:06:32;1.00;99.90
14182;DHT22;7171;50.936;6.764;2023-03-01T07:08:59;1.10;99.90
14182;DHT22;7171;50.936;6.764;2023-03-01T07:11:26;1.10;99.90
14182;DHT22;7171;50.936;6.764;2023-03-01T07:13:52;1.00;99.90
14182;DHT22;7171;50.936;6.764;2023-03-01T07:16:20;1.00;99.90
14182;DHT22;7171;50.936;6.764;2023-03-01T07:18:47;1.00;99.90
14182;DHT22;7171;50.936;6.764;2023-03-01T07:21:15;1.00;99.90
14182;DHT22;7171;50.936;6.764;2023-03-01T07:23:42;1.00;99.90
14182;DHT22;7171;50.936;6.764;2023-03-01T07:26:09;1.00;99.90
14182;DHT22;7171;50.936;6.764;2023-03-01T07:28:36;1.10;99.90
14182;DHT22;7171;50.936;6.764;2023-03-01T07:31:05;1.00;99.90
14182;DHT22;7171;50.936;6.764;2023-03-01T07:33:32;1.10;99.90
14182;DHT22;7171;50.936;6.764;2023-03-01T07:36:00;0.90;99.90
14182;DHT22;7171;50.936;6.764;2023-03-01T07:38:28;1.20;99.90
14182;DHT22;7171;50.936;6.764;2023-03-01T07:40:58;1.10;99.90
14182;DHT22;7171;50.936;6.764;2023-03-01T07:43:25;1.20;99.90
14182;DHT22;7171;50.936;6.764;2023-03-01T07:45:52;1.10;99.90
14182;DHT22;7171;50.936;6.764;2023-03-01T07:48:19;1.20;99.90
14182;DHT22;7171;50.936;6.764;2023-03-01T07:50:46;1.20;99.90
14182;DHT22;7171;50.936;6.764;2023-03-01T07:53:12;1.30;99.90
14182;DHT22;7171;50.936;6.764;2023-03-01T07:55:40;1.40;99.90
14182;DHT22;7171;50.936;6.764;2023-03-01T07:58:07;1.30;99.90
14182;DHT22;7171;50.936;6.764;2023-03-01T08:00:34;1.40;99.90
14182;DHT22;7171;50.936;6.764;2023-03-01T08:03:01;1.40;99.90
14182;DHT22;7171;50.936;6.764;2023-03-01T08:05:28;1.50;99.90
14182;DHT22;7171;50.936;6.764;2023-03-01T08:07:55;1.50;99.90
14182;DHT22;7171;50.936;6.764;2023-03-01T08:10:22;1.50;99.90
14182;DHT22;7171;50.936;6.764;2023-03-01T08:12:52;1.60;99.90
14182;DHT22;7171;50.936;6.764;2023-03-01T08:15:19;1.60;99.90
14182;DHT22;7171;50.936;6.764;2023-03-01T08:17:49;1.60;99.90
14182;DHT22;7171;50.936;6.764;2023-03-01T08:20:16;1.60;99.90
14182;DHT22;7171;50.936;6.764;2023-03-01T08:22:43;1.70;99.90
14182;DHT22;7171;50.936;6.764;2023-03-01T08:25:10;1.70;99.90
14182;DHT22;7171;50.936;6.764;2023-03-01T08:27:36;1.70;99.90
14182;DHT22;7171;50.936;6.764;2023-03-01T08:30:06;1.80;99.90
14182;DHT22;7171;50.936;6.764;2023-03-01T08:32:36;1.80;99.90
14182;DHT22;7171;50.936;6.764;2023-03-01T08:35:04;2.40;99.90
14182;DHT22;7171;50.936;6.764;2023-03-01T08:37:31;1.80;99.90
14182;DHT22;7171;50.936;6.764;2023-03-01T08:39:58;1.90;99.90
14182;DHT22;7171;50.936;6.764;2023-03-01T08:42:25;1.90;99.90
14182;DHT22;7171;50.936;6.764;2023-03-01T08:44:52;1.90;99.90
14182;DHT22;7171;50.936;6.764;2023-03-01T08:47:20;2.00;99.90
14182;DHT22;7171;50.936;6.764;2023-03-01T08:49:46;2.00;99.90
14182;DHT22;7171;50.936;6.764;2023-03-01T08:52:13;2.00;99.90
14182;DHT22;7171;50.936;6.764;2023-03-01T08:54:40;2.00;99.90
14182;DHT22;7171;50.936;6.764;2023-03-01T08:57:06;2.10;99.90
14182;DHT22;7171;50.936;6.764;2023-03-01T08:59:35;2.10;99.90
14182;DHT22;7171;50.936;6.764;2023-03-01T09:02:02;2.20;99.90
14182;DHT22;7171;50.936;6.764;2023-03-01T09:04:31;2.30;99.90
14182;DHT22;7171;50.936;6.764;2023-03-01T09:06:58;2.30;99.90
14182;DHT22;7171;50.936;6.764;2023-03-01T09:09:25;2.30;99.90
14182;DHT22;7171;50.936;6.764;2023-03-01T09:19:13;2.70;99.90
14182;DHT22;7171;50.936;6.764;2023-03-01T09:21:41;2.70;99.90
14182;DHT22;7171;50.936;6.764;2023-03-01T09:24:19;2.70;99.90
14182;DHT22;7171;50.936;6.764;2023-03-01T09:26:46;2.80;99.90
14182;DHT22;7171;50.936;6.764;2023-03-01T09:29:13;2.80;99.90
14182;DHT22;7171;50.936;6.764;2023-03-01T09:31:40;2.90;99.90
14182;DHT22;7171;50.936;6.764;2023-03-01T09:39:04;3.30;99.90
14182;DHT22;7171;50.936;6.764;2023-03-01T09:41:43;3.30;99.90
14182;DHT22;7171;50.936;6.764;2023-03-01T09:44:16;3.30;99.90
14182;DHT22;7171;50.936;6.764;2023-03-01T09:46:45;3.40;99.90
14182;DHT22;7171;50.936;6.764;2023-03-01T09:49:15;3.50;99.90
14182;DHT22;7171;50.936;6.764;2023-03-01T09:51:50;3.50;99.90
14182;DHT22;7171;50.936;6.764;2023-03-01T09:54:21;3.60;99.90
14182;DHT22;7171;50.936;6.764;2023-03-01T09:56:57;3.70;99.90
14182;DHT22;7171;50.936;6.764;2023-03-01T09:59:28;3.80;99.90
14182;DHT22;7171;50.936;6.764;2023-03-01T10:02:05;3.90;99.90
14182;DHT22;7171;50.936;6.764;2023-03-01T10:07:26;4.10;99.90
14182;DHT22;7171;50.936;6.764;2023-03-01T10:09:55;4.20;99.90
14182;DHT22;7171;50.936;6.764;2023-03-01T10:12:27;4.40;99.90
14182;DHT22;7171;50.936;6.764;2023-03-01T10:15:02;4.40;99.90
14182;DHT22;7171;50.936;6.764;2023-03-01T10:17:34;4.50;99.90
14182;DHT22;7171;50.936;6.764;2023-03-01T10:20:28;4.60;99.90
14182;DHT22;7171;50.936;6.764;2023-03-01T10:22:56;4.70;99.90
14182;DHT22;7171;50.936;6.764;2023-03-01T10:25:47;4.80;99.90
14182;DHT22;7171;50.936;6.764;2023-03-01T10:28:18;4.80;99.90
14182;DHT22;7171;50.936;6.764;2023-03-01T10:30:46;4.90;99.90
14182;DHT22;7171;50.936;6.764;2023-03-01T10:33:17;4.90;99.90
14182;DHT22;7171;50.936;6.764;2023-03-01T10:35:45;5.00;99.90
14182;DHT22;7171;50.936;6.764;2023-03-01T10:38:14;5.00;99.90
14182;DHT22;7171;50.936;6.764;2023-03-01T10:43:21;5.10;99.90
14182;DHT22;7171;50.936;6.764;2023-03-01T10:45:48;5.20;99.90
14182;DHT22;7171;50.936;6.764;2023-03-01T10:48:16;5.20;99.90
14182;DHT22;7171;50.936;6.764;2023-03-01T10:50:46;5.30;99.90
14182;DHT22;7171;50.936;6.764;2023-03-01T10:53:28;5.30;99.90
14182;DHT22;7171;50.936;6.764;2023-03-01T10:56:03;5.40;99.90
14182;DHT22;7171;50.936;6.764;2023-03-01T10:58:30;5.40;99.90
14182;DHT22;7171;50.936;6.764;2023-03-01T11:00:59;5.50;99.90
14182;DHT22;7171;50.936;6.764;2023-03-01T11:03:28;5.50;99.90
14182;DHT22;7171;50.936;6.764;2023-03-01T11:06:05;5.50;99.90
14182;DHT22;7171;50.936;6.764;2023-03-01T11:08:39;5.60;99.90
14182;DHT22;7171;50.936;6.764;2023-03-01T11:11:21;5.70;99.90
14182;DHT22;7171;50.936;6.764;2023-03-01T11:13:54;5.80;99.90
14182;DHT22;7171;50.936;6.764;2023-03-01T11:16:31;5.80;99.90
14182;DHT22;7171;50.936;6.764;2023-03-01T11:19:04;5.90;99.90
14182;DHT22;7171;50.936;6.764;2023-03-01T11:21:32;5.90;99.90
14182;DHT22;7171;50.936;6.764;2023-03-01T11:24:01;5.90;99.30
14182;DHT22;7171;50.936;6.764;2023-03-01T11:26:35;5.90;99.70
14182;DHT22;7171;50.936;6.764;2023-03-01T11:29:10;5.90;99.70
14182;DHT22;7171;50.936;6.764;2023-03-01T11:31:40;5.90;99.80
14182;DHT22;7171;50.936;6.764;2023-03-01T11:34:12;6.00;99.90
14182;DHT22;7171;50.936;6.764;2023-03-01T11:36:46;6.00;99.90
14182;DHT22;7171;50.936;6.764;2023-03-01T11:39:25;6.10;99.90
14182;DHT22;7171;50.936;6.764;2023-03-01T11:42:02;6.10;99.90
14182;DHT22;7171;50.936;6.764;2023-03-01T11:44:33;6.20;99.90
14182;DHT22;7171;50.936;6.764;2023-03-01T11:47:18;6.20;99.60
14182;DHT22;7171;50.936;6.764;2023-03-01T11:50:03;6.30;99.50
14182;DHT22;7171;50.936;6.764;2023-03-01T11:52:39;6.30;99.00
14182;DHT22;7171;50.936;6.764;2023-03-01T11:55:24;6.30;99.20
14182;DHT22;7171;50.936;6.764;2023-03-01T11:58:14;6.30;99.10
14182;DHT22;7171;50.936;6.764;2023-03-01T12:00:53;6.20;98.90
14182;DHT22;7171;50.936;6.764;2023-03-01T12:03:32;6.30;99.20
14182;DHT22;7171;50.936;6.764;2023-03-01T12:06:13;6.30;99.10
14182;DHT22;7171;50.936;6.764;2023-03-01T12:08:55;6.30;99.00
14182;DHT22;7171;50.936;6.764;2023-03-01T12:11:35;6.30;98.50
14182;DHT22;7171;50.936;6.764;2023-03-01T12:14:28;6.40;98.50
14182;DHT22;7171;50.936;6.764;2023-03-01T12:17:11;6.40;98.70
14182;DHT22;7171;50.936;6.764;2023-03-01T12:20:02;6.40;98.60
14182;DHT22;7171;50.936;6.764;2023-03-01T12:22:39;6.40;98.50
14182;DHT22;7171;50.936;6.764;2023-03-01T12:25:18;6.50;98.70
14182;DHT22;7171;50.936;6.764;2023-03-01T12:28:02;6.50;98.40
14182;DHT22;7171;50.936;6.764;2023-03-01T12:30:42;6.60;98.30
14182;DHT22;7171;50.936;6.764;2023-03-01T12:33:19;6.60;99.90
14182;DHT22;7171;50.936;6.764;2023-03-01T12:38:32;6.70;97.90
14182;DHT22;7171;50.936;6.764;2023-03-01T12:41:20;6.80;98.20
14182;DHT22;7171;50.936;6.764;2023-03-01T12:43:58;6.80;98.00
14182;DHT22;7171;50.936;6.764;2023-03-01T12:46:35;6.80;97.80
14182;DHT22;7171;50.936;6.764;2023-03-01T12:49:09;6.90;97.40
14182;DHT22;7171;50.936;6.764;2023-03-01T12:51:38;6.90;97.50
14182;DHT22;7171;50.936;6.764;2023-03-01T12:54:14;6.90;97.70
14182;DHT22;7171;50.936;6.764;2023-03-01T12:56:42;7.00;97.60
14182;DHT22;7171;50.936;6.764;2023-03-01T12:59:17;7.10;97.90
14182;DHT22;7171;50.936;6.764;2023-03-01T13:01:52;7.10;97.20
14182;DHT22;7171;50.936;6.764;2023-03-01T13:04:27;7.10;96.60
14182;DHT22;7171;50.936;6.764;2023-03-01T13:07:10;7.20;95.90
14182;DHT22;7171;50.936;6.764;2023-03-01T13:09:43;7.20;96.90
14182;DHT22;7171;50.936;6.764;2023-03-01T13:12:45;7.30;97.00
14182;DHT22;7171;50.936;6.764;2023-03-01T13:15:32;7.30;97.30
14182;DHT22;7171;50.936;6.764;2023-03-01T13:18:02;7.40;96.70
14182;DHT22;7171;50.936;6.764;2023-03-01T13:20:33;7.40;96.20
14182;DHT22;7171;50.936;6.764;2023-03-01T13:23:07;7.40;96.10
14182;DHT22;7171;50.936;6.764;2023-03-01T13:26:07;7.40;96.60
14182;DHT22;7171;50.936;6.764;2023-03-01T13:31:59;7.40;96.70
14182;DHT22;7171;50.936;6.764;2023-03-01T13:34:50;7.50;95.70
14182;DHT22;7171;50.936;6.764;2023-03-01T13:37:23;7.50;96.00
14182;DHT22;7171;50.936;6.764;2023-03-01T13:39:51;7.50;96.10
14182;DHT22;7171;50.936;6.764;2023-03-01T13:42:41;7.50;96.30
14182;DHT22;7171;50.936;6.764;2023-03-01T13:45:20;7.50;96.30
14182;DHT22;7171;50.936;6.764;2023-03-01T13:47:51;7.50;96.60
14182;DHT22;7171;50.936;6.764;2023-03-01T13:50:21;7.60;95.90
14182;DHT22;7171;50.936;6.764;2023-03-01T13:52:52;7.60;96.10
14182;DHT22;7171;50.936;6.764;2023-03-01T13:55:23;7.70;96.20
14182;DHT22;7171;50.936;6.764;2023-03-01T13:57:54;7.60;95.80
14182;DHT22;7171;50.936;6.764;2023-03-01T14:00:32;7.60;96.10
14182;DHT22;7171;50.936;6.764;2023-03-01T14:03:04;7.60;95.90
14182;DHT22;7171;50.936;6.764;2023-03-01T14:05:32;7.60;96.40
14182;DHT22;7171;50.936;6.764;2023-03-01T14:07:59;7.60;96.30
14182;DHT22;7171;50.936;6.764;2023-03-01T14:10:31;7.60;96.50
14182;DHT22;7171;50.936;6.764;2023-03-01T14:13:12;7.70;96.50
14182;DHT22;7171;50.936;6.764;2023-03-01T14:15:50;7.70;96.50
14182;DHT22;7171;50.936;6.764;2023-03-01T14:18:28;7.70;96.20
14182;DHT22;7171;50.936;6.764;2023-03-01T14:20:57;7.70;96.20
14182;DHT22;7171;50.936;6.764;2023-03-01T14:23:25;7.80;96.30
14182;DHT22;7171;50.936;6.764;2023-03-01T14:25:55;7.80;96.20
14182;DHT22;7171;50.936;6.764;2023-03-01T14:28:26;7.80;95.70
14182;DHT22;7171;50.936;6.764;2023-03-01T14:30:54;7.80;96.20
14182;DHT22;7171;50.936;6.764;2023-03-01T14:33:24;7.90;96.90
14182;DHT22;7171;50.936;6.764;2023-03-01T14:35:57;8.00;96.40
14182;DHT22;7171;50.936;6.764;2023-03-01T14:38:29;8.00;96.20
14182;DHT22;7171;50.936;6.764;2023-03-01T14:40:58;8.00;96.00
14182;DHT22;7171;50.936;6.764;2023-03-01T14:43:29;8.10;95.60
14182;DHT22;7171;50.936;6.764;2023-03-01T14:45:56;8.10;95.70
14182;DHT22;7171;50.936;6.764;2023-03-01T14:48:23;8.10;96.10
14182;DHT22;7171;50.936;6.764;2023-03-01T14:50:51;8.10;96.20
14182;DHT22;7171;50.936;6.764;2023-03-01T14:53:21;8.10;96.20
14182;DHT22;7171;50.936;6.764;2023-03-01T14:55:52;8.00;96.20
14182;DHT22;7171;50.936;6.764;2023-03-01T14:58:21;8.10;96.50
14182;DHT22;7171;50.936;6.764;2023-03-01T15:00:52;8.10;96.50
14182;DHT22;7171;50.936;6.764;2023-03-01T15:03:24;8.10;96.50
14182;DHT22;7171;50.936;6.764;2023-03-01T15:05:52;8.10;96.50
14182;DHT22;7171;50.936;6.764;2023-03-01T15:08:22;8.10;96.40
14182;DHT22;7171;50.936;6.764;2023-03-01T15:10:59;8.20;96.60
14182;DHT22;7171;50.936;6.764;2023-03-01T15:13:28;8.10;96.30
14182;DHT22;7171;50.936;6.764;2023-03-01T15:16:06;8.20;96.40
14182;DHT22;7171;50.936;6.764;2023-03-01T15:18:34;8.20;96.50
14182;DHT22;7171;50.936;6.764;2023-03-01T15:21:10;8.20;96.60
14182;DHT22;7171;50.936;6.764;2023-03-01T15:23:41;8.20;96.70
14182;DHT22;7171;50.936;6.764;2023-03-01T15:26:24;8.20;96.80
14182;DHT22;7171;50.936;6.764;2023-03-01T15:28:53;8.20;96.70
14182;DHT22;7171;50.936;6.764;2023-03-01T15:31:26;8.20;96.70
14182;DHT22;7171;50.936;6.764;2023-03-01T15:34:08;8.10;96.60
14182;DHT22;7171;50.936;6.764;2023-03-01T15:36:41;8.10;96.30
14182;DHT22;7171;50.936;6.764;2023-03-01T15:42:10;8.10;96.80
14182;DHT22;7171;50.936;6.764;2023-03-01T15:44:39;8.10;96.40
14182;DHT22;7171;50.936;6.764;2023-03-01T15:47:26;8.00;96.50
14182;DHT22;7171;50.936;6.764;2023-03-01T15:49:54;8.00;96.30
14182;DHT22;7171;50.936;6.764;2023-03-01T15:52:24;8.00;96.60
14182;DHT22;7171;50.936;6.764;2023-03-01T15:54:55;8.00;96.80
14182;DHT22;7171;50.936;6.764;2023-03-01T15:57:21;8.00;96.90
14182;DHT22;7171;50.936;6.764;2023-03-01T15:59:48;8.10;96.70
14182;DHT22;7171;50.936;6.764;2023-03-01T16:02:16;8.20;98.60
14182;DHT22;7171;50.936;6.764;2023-03-01T16:04:46;8.10;99.90
14182;DHT22;7171;50.936;6.764;2023-03-01T16:17:07;8.50;96.30
14182;DHT22;7171;50.936;6.764;2023-03-01T16:19:36;8.40;96.50
14182;DHT22;7171;50.936;6.764;2023-03-01T16:22:03;8.30;96.60
14182;DHT22;7171;50.936;6.764;2023-03-01T16:24:30;8.20;96.40
14182;DHT22;7171;50.936;6.764;2023-03-01T16:26:57;8.10;96.50
14182;DHT22;7171;50.936;6.764;2023-03-01T16:29:24;8.00;96.40
14182;DHT22;7171;50.936;6.764;2023-03-01T16:31:50;7.90;96.30
14182;DHT22;7171;50.936;6.764;2023-03-01T16:34:17;7.80;96.20
14182;DHT22;7171;50.936;6.764;2023-03-01T16:36:48;7.70;96.20
14182;DHT22;7171;50.936;6.764;2023-03-01T16:39:15;7.60;96.20
14182;DHT22;7171;50.936;6.764;2023-03-01T16:41:41;7.60;96.10
14182;DHT22;7171;50.936;6.764;2023-03-01T16:44:08;7.40;95.90
14182;DHT22;7171;50.936;6.764;2023-03-01T16:46:35;7.40;96.20
14182;DHT22;7171;50.936;6.764;2023-03-01T16:49:02;7.30;96.10
14182;DHT22;7171;50.936;6.764;2023-03-01T16:51:29;7.20;96.10
14182;DHT22;7171;50.936;6.764;2023-03-01T16:53:57;7.20;96.10
14182;DHT22;7171;50.936;6.764;2023-03-01T16:56:24;7.10;96.10
14182;DHT22;7171;50.936;6.764;2023-03-01T16:58:51;7.10;96.10
14182;DHT22;7171;50.936;6.764;2023-03-01T17:01:19;7.00;96.10
14182;DHT22;7171;50.936;6.764;2023-03-01T17:06:18;7.00;95.90
14182;DHT22;7171;50.936;6.764;2023-03-01T17:08:46;6.90;96.00
14182;DHT22;7171;50.936;6.764;2023-03-01T17:11:15;6.90;96.20
14182;DHT22;7171;50.936;6.764;2023-03-01T17:13:43;6.90;96.20
14182;DHT22;7171;50.936;6.764;2023-03-01T17:16:11;6.90;96.30
14182;DHT22;7171;50.936;6.764;2023-03-01T17:18:38;6.80;96.20
14182;DHT22;7171;50.936;6.764;2023-03-01T17:21:06;6.80;96.20
14182;DHT22;7171;50.936;6.764;2023-03-01T17:23:34;6.80;96.20
14182;DHT22;7171;50.936;6.764;2023-03-01T17:26:02;6.70;96.20
14182;DHT22;7171;50.936;6.764;2023-03-01T17:28:32;6.70;96.20
14182;DHT22;7171;50.936;6.764;2023-03-01T17:31:00;6.60;96.20
14182;DHT22;7171;50.936;6.764;2023-03-01T17:33:27;6.60;96.10
14182;DHT22;7171;50.936;6.764;2023-03-01T17:35:55;6.50;96.10
14182;DHT22;7171;50.936;6.764;2023-03-01T17:38:22;6.50;96.10
14182;DHT22;7171;50.936;6.764;2023-03-01T17:40:49;6.50;96.10
14182;DHT22;7171;50.936;6.764;2023-03-01T17:43:16;6.40;96.10
14182;DHT22;7171;50.936;6.764;2023-03-01T17:45:45;6.40;96.20
14182;DHT22;7171;50.936;6.764;2023-03-01T17:48:15;6.40;96.10
14182;DHT22;7171;50.936;6.764;2023-03-01T17:50:42;6.30;96.10
14182;DHT22;7171;50.936;6.764;2023-03-01T17:53:09;6.30;96.10
14182;DHT22;7171;50.936;6.764;2023-03-01T17:55:36;6.30;96.10
14182;DHT22;7171;50.936;6.764;2023-03-01T17:58:03;6.20;96.10
14182;DHT22;7171;50.936;6.764;2023-03-01T18:00:30;6.20;96.10
14182;DHT22;7171;50.936;6.764;2023-03-01T18:02:59;6.20;96.20
14182;DHT22;7171;50.936;6.764;2023-03-01T18:05:26;6.10;96.10
14182;DHT22;7171;50.936;6.764;2023-03-01T18:07:53;6.10;96.10
14182;DHT22;7171;50.936;6.764;2023-03-01T18:10:20;6.10;96.20
14182;DHT22;7171;50.936;6.764;2023-03-01T18:12:46;6.10;96.20